Sea Change II — DG3448 — position and weather

sailwx.info

Track history (hours):
 
Tides and Currents Weather Stations Pressure Air Temp Water Temp Dewpoint Dewpoint Depression Visibility Wind Speed Wind Dir Waves Ship Positions

Sea Change II

Last reported at 2018-Jun-16 09:44 UTC. Time now 2018-Jun-20 17:13 UTC.
Position N 39°25' E 002°44'.

Length 17 m; draft 2.8 m.

Type: Sailing vessel. MMSI: 211490860.

Date/timePositionNaut miles runAvg speedWind from/ knotsBaromVisibWave heightAir tempDewpointWater temp
2018-Jun-16 09:44N 39°25' E 002°44'1 5.3
2018-Jun-16 09:30N 39°26' E 002°43'3 5.4
2018-Jun-16 09:00N 39°29' E 002°41'3 5.4
2018-Jun-16 08:30N 39°31' E 002°40'3 5.2
2018-Jun-16 08:00N 39°33' E 002°38'1 0.0
2018-Jun-15 15:57N 39°34' E 002°38'0 0.7
2018-Jun-15 15:30N 39°34' E 002°38'2 3.6
2018-Jun-15 15:00N 39°32' E 002°39'2 3.4
2018-Jun-15 14:30N 39°30' E 002°40'2 3.8
2018-Jun-15 13:59N 39°28' E 002°40'2 3.6
2018-Jun-15 13:30N 39°27' E 002°39'1 2.9
2018-Jun-15 13:00N 39°27' E 002°38'2 3.2
2018-Jun-15 12:30N 39°28' E 002°36'2 3.3
2018-Jun-15 11:53N 39°28' E 002°33'1 0.3
2018-Jun-15 09:37N 39°29' E 002°33'1 5.3
2018-Jun-15 09:27N 39°29' E 002°34'2 5.2
2018-Jun-15 09:00N 39°31' E 002°36'3 5.4
2018-Jun-15 08:30N 39°33' E 002°39'1 0.1
2018-Jun-14 17:27N 39°34' E 002°38'0 0.0
2018-Jun-14 16:57N 39°34' E 002°38'0 0.0
2018-Jun-14 16:30N 39°34' E 002°38'2 3.0
2018-Jun-14 16:00N 39°32' E 002°38'3 0.7
2018-Jun-14 12:20N 39°32' E 002°34'2 5.3
2018-Jun-14 12:00N 39°32' E 002°37'1 2.5
2018-Jun-14 11:30N 39°33' E 002°38'1 1.3
2018-Jun-14 11:00N 39°33' E 002°39'1 2.2
2018-Jun-14 10:27N 39°34' E 002°38'0 0.0
2018-Jun-14 10:00N 39°34' E 002°38'0 0.0
2018-Jun-13 14:20N 39°34' E 002°38'0 1.4
2018-Jun-13 14:00N 39°33' E 002°38'1 2.6
2018-Jun-13 13:29N 39°33' E 002°40'2 4.4
2018-Jun-13 12:59N 39°32' E 002°37'2 4.7
2018-Jun-13 12:29N 39°30' E 002°39'1 2.8
2018-Jun-13 12:00N 39°32' E 002°39'2 4.3
2018-Jun-13 11:30N 39°34' E 002°38'0 0.0
2018-Jun-12 16:39N 39°34' E 002°38'0 0.0
2018-Jun-12 16:30N 39°34' E 002°38'0 0.0
2018-Jun-12 16:00N 39°34' E 002°38'1 2.3
2018-Jun-12 15:30N 39°33' E 002°38'3 6.3
2018-Jun-12 14:59N 39°31' E 002°35'5 2.1
2018-Jun-12 12:28N 39°25' E 002°35'3 4.7
2018-Jun-12 11:54N 39°28' E 002°35'2 5.2
2018-Jun-12 11:30N 39°30' E 002°35'1 2.4
2018-Jun-12 11:00N 39°31' E 002°35'1 2.7
2018-Jun-12 10:30N 39°31' E 002°37'1 2.4
2018-Jun-12 10:00N 39°32' E 002°38'2 3.2
2018-Jun-12 09:30N 39°34' E 002°38'  
2018-Jun-07 20:57N 39°34' E 002°38'0 0.0
2018-Jun-07 20:30N 39°34' E 002°38'0 0.0
2018-Jun-07 20:00N 39°34' E 002°38'  
Track history (hours):
 
Tides and Currents Weather Stations Pressure Air Temp Water Temp Dewpoint Dewpoint Depression Visibility Wind Speed Wind Dir Waves Ship Positions

Sea Change II

Last reported at 2018-Jun-16 09:44 UTC. Time now 2018-Jun-20 17:13 UTC.
Position N 39°25' E 002°44'.

Length 17 m; draft 2.8 m.

Type: Sailing vessel. MMSI: 211490860.

Date/timePositionNaut miles runAvg speedWind from/ knotsBaromVisibWave heightAir tempDewpointWater temp
2018-Jun-16 09:44N 39°25' E 002°44'1 5.3
2018-Jun-16 09:30N 39°26' E 002°43'3 5.4
2018-Jun-16 09:00N 39°29' E 002°41'3 5.4
2018-Jun-16 08:30N 39°31' E 002°40'3 5.2
2018-Jun-16 08:00N 39°33' E 002°38'1 0.0
2018-Jun-15 15:57N 39°34' E 002°38'0 0.7
2018-Jun-15 15:30N 39°34' E 002°38'2 3.6
2018-Jun-15 15:00N 39°32' E 002°39'2 3.4
2018-Jun-15 14:30N 39°30' E 002°40'2 3.8
2018-Jun-15 13:59N 39°28' E 002°40'2 3.6
2018-Jun-15 13:30N 39°27' E 002°39'1 2.9
2018-Jun-15 13:00N 39°27' E 002°38'2 3.2
2018-Jun-15 12:30N 39°28' E 002°36'2 3.3
2018-Jun-15 11:53N 39°28' E 002°33'1 0.3
2018-Jun-15 09:37N 39°29' E 002°33'1 5.3
2018-Jun-15 09:27N 39°29' E 002°34'2 5.2
2018-Jun-15 09:00N 39°31' E 002°36'3 5.4
2018-Jun-15 08:30N 39°33' E 002°39'1 0.1
2018-Jun-14 17:27N 39°34' E 002°38'0 0.0
2018-Jun-14 16:57N 39°34' E 002°38'0 0.0
2018-Jun-14 16:30N 39°34' E 002°38'2 3.0
2018-Jun-14 16:00N 39°32' E 002°38'3 0.7
2018-Jun-14 12:20N 39°32' E 002°34'2 5.3
2018-Jun-14 12:00N 39°32' E 002°37'1 2.5
2018-Jun-14 11:30N 39°33' E 002°38'1 1.3
2018-Jun-14 11:00N 39°33' E 002°39'1 2.2
2018-Jun-14 10:27N 39°34' E 002°38'0 0.0
2018-Jun-14 10:00N 39°34' E 002°38'0 0.0
2018-Jun-13 14:20N 39°34' E 002°38'0 1.4
2018-Jun-13 14:00N 39°33' E 002°38'1 2.6
2018-Jun-13 13:29N 39°33' E 002°40'2 4.4
2018-Jun-13 12:59N 39°32' E 002°37'2 4.7
2018-Jun-13 12:29N 39°30' E 002°39'1 2.8
2018-Jun-13 12:00N 39°32' E 002°39'2 4.3
2018-Jun-13 11:30N 39°34' E 002°38'0 0.0
2018-Jun-12 16:39N 39°34' E 002°38'0 0.0
2018-Jun-12 16:30N 39°34' E 002°38'0 0.0
2018-Jun-12 16:00N 39°34' E 002°38'1 2.3
2018-Jun-12 15:30N 39°33' E 002°38'3 6.3
2018-Jun-12 14:59N 39°31' E 002°35'5 2.1
2018-Jun-12 12:28N 39°25' E 002°35'3 4.7
2018-Jun-12 11:54N 39°28' E 002°35'2 5.2
2018-Jun-12 11:30N 39°30' E 002°35'1 2.4
2018-Jun-12 11:00N 39°31' E 002°35'1 2.7
2018-Jun-12 10:30N 39°31' E 002°37'1 2.4
2018-Jun-12 10:00N 39°32' E 002°38'2 3.2
2018-Jun-12 09:30N 39°34' E 002°38'  
2018-Jun-07 20:57N 39°34' E 002°38'0 0.0
2018-Jun-07 20:30N 39°34' E 002°38'0 0.0
2018-Jun-07 20:00N 39°34' E 002°38'  

Dump ship's entire track history